aviador You're here:

OMDW Decoded Metar

in
Report Time2018-01-16 21:00:00
UTC Time2018-01-16 21:11:29
Flight Rules vfr VFR
Wind270° at 07 kt
W.Decomp.*RWY 30: 6.1 kt HW 3.5 kt LCW
W.Rank270° ranks 20
Current wind is below 270° avg. (8.5)
Visibility9999 m
Phenomena:N/A
Clouds:Scattered 035 Hf
Expected CloudBase > 2,400 ft AGL from Temp-Dew spread
CeilingNone
Temp18°C
Dew Point12°C (68% RH)
AAT16.1°C
QNH1016 hPa
Raw Report
METAR OMDW 162100Z 27007KT 9999 SCT035 18/12 Q1016 NOSIG=

Extra information for OMDW:More info

Social comments